createdAt,value
2022-08-03T00:02:20.322Z,21.29
2022-08-03T00:04:50.863Z,21.30
2022-08-03T00:07:21.529Z,21.23
2022-08-03T00:09:52.157Z,21.17
2022-08-03T00:12:22.705Z,21.12
2022-08-03T00:14:53.218Z,21.11
2022-08-03T00:17:24.757Z,21.17
2022-08-03T00:19:55.700Z,21.10
2022-08-03T00:22:26.267Z,21.18
2022-08-03T00:24:56.762Z,21.19
2022-08-03T00:27:27.874Z,21.14
2022-08-03T00:30:00.628Z,21.17
2022-08-03T00:32:31.444Z,21.14
2022-08-03T00:35:08.355Z,21.16
2022-08-03T00:37:41.048Z,21.22
2022-08-03T00:40:09.686Z,21.38
2022-08-03T00:42:58.219Z,21.39
2022-08-03T00:45:32.042Z,21.24
2022-08-03T00:48:03.306Z,21.22
2022-08-03T00:50:36.571Z,21.19
2022-08-03T00:53:08.394Z,21.13
2022-08-03T00:55:39.232Z,21.13
2022-08-03T00:58:11.300Z,21.10
2022-08-03T01:00:42.306Z,21.04
2022-08-03T01:03:14.634Z,20.99
2022-08-03T01:06:03.001Z,21.24
2022-08-03T01:08:48.927Z,21.18
2022-08-03T01:11:31.549Z,21.15
2022-08-03T01:14:27.785Z,21.14
2022-08-03T01:17:07.445Z,21.12
2022-08-03T01:19:52.951Z,21.08
2022-08-03T01:22:49.458Z,21.06
2022-08-03T01:25:45.891Z,21.06
2022-08-03T01:28:43.757Z,21.02
2022-08-03T01:31:17.187Z,21.06
2022-08-03T01:33:50.721Z,21.02
2022-08-03T01:36:23.653Z,21.14
2022-08-03T01:38:57.202Z,21.14
2022-08-03T01:41:33.513Z,21.21
2022-08-03T01:44:29.159Z,21.12
2022-08-03T01:46:40.575Z,21.30
2022-08-03T01:49:14.442Z,21.14
2022-08-03T01:52:03.583Z,21.16
2022-08-03T01:54:23.745Z,21.12
2022-08-03T01:56:56.236Z,21.03
2022-08-03T01:59:29.282Z,21.02
2022-08-03T02:02:31.709Z,21.28
2022-08-03T02:04:34.998Z,21.11
2022-08-03T02:07:06.474Z,21.24
2022-08-03T02:09:39.724Z,21.13
2022-08-03T02:12:12.004Z,21.16
2022-08-03T02:14:44.568Z,21.15
2022-08-03T02:17:16.761Z,21.27
2022-08-03T02:19:48.237Z,21.26
2022-08-03T02:22:19.056Z,21.20
2022-08-03T02:24:50.946Z,21.24
2022-08-03T02:27:24.365Z,21.20
2022-08-03T02:29:57.819Z,21.16
2022-08-03T02:32:34.266Z,21.14
2022-08-03T02:35:07.959Z,21.16
2022-08-03T02:37:42.923Z,21.18
2022-08-03T02:40:14.585Z,21.15
2022-08-03T02:42:49.176Z,21.20
2022-08-03T02:45:21.187Z,21.05
2022-08-03T02:47:55.052Z,20.98
2022-08-03T02:50:27.558Z,20.92
2022-08-03T02:52:59.547Z,20.88
2022-08-03T02:55:31.485Z,20.85
2022-08-03T02:58:05.128Z,20.87
2022-08-03T03:00:36.763Z,20.84
2022-08-03T03:03:08.682Z,20.83
2022-08-03T03:05:55.047Z,20.78
2022-08-03T03:08:26.213Z,20.78
2022-08-03T03:10:53.266Z,20.73
2022-08-03T03:13:25.471Z,20.78
2022-08-03T03:15:58.980Z,20.74
2022-08-03T03:18:32.153Z,20.77
2022-08-03T03:21:04.976Z,20.86
2022-08-03T03:23:40.387Z,20.84
2022-08-03T03:26:11.155Z,20.84
2022-08-03T03:28:43.057Z,20.87
2022-08-03T03:31:13.795Z,20.84
2022-08-03T03:33:45.148Z,20.87
2022-08-03T03:36:15.747Z,20.89
2022-08-03T03:38:46.417Z,20.74
2022-08-03T03:41:16.973Z,20.64
2022-08-03T03:43:48.107Z,20.65
2022-08-03T03:46:19.979Z,20.69
2022-08-03T03:48:51.008Z,20.53
2022-08-03T03:51:21.730Z,20.50
2022-08-03T03:53:59.769Z,20.48
2022-08-03T03:56:30.264Z,20.44
2022-08-03T03:59:00.711Z,20.42
2022-08-03T04:01:31.973Z,20.40
2022-08-03T04:04:04.182Z,20.40
2022-08-03T04:06:52.685Z,20.50
2022-08-03T04:09:41.331Z,20.63
2022-08-03T04:12:11.803Z,20.59
2022-08-03T04:14:43.496Z,20.70
2022-08-03T04:17:15.763Z,20.82
2022-08-03T04:19:52.312Z,20.92
2022-08-03T04:22:25.876Z,20.81
2022-08-03T04:25:02.501Z,20.80
2022-08-03T04:27:35.977Z,20.90
2022-08-03T04:30:07.925Z,20.82
2022-08-03T04:32:44.141Z,20.80
2022-08-03T04:35:11.764Z,21.06
2022-08-03T04:37:48.775Z,20.87
2022-08-03T04:40:25.174Z,20.87
2022-08-03T04:42:59.456Z,20.80
2022-08-03T04:45:31.674Z,20.92
2022-08-03T04:48:03.002Z,20.85
2022-08-03T04:50:34.334Z,20.93
2022-08-03T04:53:06.728Z,21.02
2022-08-03T04:55:37.626Z,20.98
2022-08-03T04:58:08.200Z,21.24
2022-08-03T05:00:38.765Z,21.10
2022-08-03T05:03:20.226Z,21.30
2022-08-03T05:05:50.006Z,21.47
2022-08-03T05:08:13.546Z,22.70
2022-08-03T05:10:45.191Z,25.55
2022-08-03T05:13:15.991Z,28.77
2022-08-03T05:15:46.457Z,31.33
2022-08-03T05:18:16.915Z,33.58
2022-08-03T05:20:47.455Z,33.76
2022-08-03T05:23:18.271Z,33.58
2022-08-03T05:25:49.982Z,34.38
2022-08-03T05:28:20.704Z,33.06
2022-08-03T05:30:51.118Z,34.27
2022-08-03T05:33:21.595Z,34.12
2022-08-03T05:36:00.849Z,34.89
2022-08-03T05:38:28.941Z,35.11
2022-08-03T05:41:20.357Z,35.26
2022-08-03T05:43:32.106Z,35.68
2022-08-03T05:46:12.971Z,36.00
2022-08-03T05:48:36.275Z,36.39
2022-08-03T05:51:07.838Z,36.61
2022-08-03T05:53:38.834Z,37.01
2022-08-03T05:56:14.577Z,37.24
2022-08-03T05:58:41.764Z,37.23
2022-08-03T06:01:12.541Z,37.22
2022-08-03T06:03:43.221Z,37.26
2022-08-03T06:06:14.683Z,37.78
2022-08-03T06:08:48.789Z,40.00
2022-08-03T06:11:19.497Z,40.05
2022-08-03T06:13:50.022Z,38.75
2022-08-03T06:16:20.626Z,38.76
2022-08-03T06:18:51.207Z,40.87
2022-08-03T06:21:21.760Z,42.17
2022-08-03T06:23:55.507Z,43.26
2022-08-03T06:26:28.334Z,43.62
2022-08-03T06:28:59.314Z,43.45
2022-08-03T06:31:32.346Z,41.36
2022-08-03T06:34:32.353Z,36.74
2022-08-03T06:36:36.143Z,37.67
2022-08-03T06:39:08.258Z,38.85
2022-08-03T06:41:44.710Z,38.70
2022-08-03T06:44:11.986Z,37.29
2022-08-03T06:46:43.342Z,36.83
2022-08-03T06:49:13.915Z,36.96
2022-08-03T06:52:03.998Z,37.58
2022-08-03T06:54:16.617Z,36.04
2022-08-03T06:56:48.149Z,34.26
2022-08-03T07:00:08.499Z,32.62
2022-08-03T07:01:51.783Z,30.90
2022-08-03T07:04:22.746Z,29.85
2022-08-03T07:06:54.055Z,29.36
2022-08-03T07:09:26.143Z,28.39
2022-08-03T07:11:57.270Z,27.59
2022-08-03T07:14:27.898Z,27.73
2022-08-03T07:17:01.195Z,27.76
2022-08-03T07:19:33.620Z,27.52
2022-08-03T07:22:04.267Z,27.64
2022-08-03T07:24:35.178Z,27.36
2022-08-03T07:27:08.093Z,27.39
2022-08-03T07:29:38.979Z,27.01
2022-08-03T07:32:09.745Z,27.20
2022-08-03T07:34:40.585Z,27.42
2022-08-03T07:37:11.423Z,27.08
2022-08-03T07:39:41.897Z,27.28
2022-08-03T07:42:12.426Z,27.16
2022-08-03T07:44:43.097Z,27.23
2022-08-03T07:47:22.503Z,27.30
2022-08-03T07:49:45.987Z,27.32
2022-08-03T07:52:36.091Z,27.28
2022-08-03T07:55:14.582Z,27.23
2022-08-03T07:57:46.050Z,27.36
2022-08-03T08:00:20.733Z,27.07
2022-08-03T08:02:52.807Z,27.40
2022-08-03T08:05:26.111Z,27.45
2022-08-03T08:07:57.073Z,27.50
2022-08-03T08:10:27.848Z,27.42
2022-08-03T08:13:00.260Z,27.47
2022-08-03T08:15:31.751Z,27.52
2022-08-03T08:18:02.737Z,27.54
2022-08-03T08:20:38.508Z,27.45
2022-08-03T08:23:37.995Z,27.80
2022-08-03T08:25:42.912Z,27.77
2022-08-03T08:28:29.785Z,27.73
2022-08-03T08:30:47.216Z,27.88
2022-08-03T08:33:23.417Z,27.92
2022-08-03T08:35:51.469Z,27.81
2022-08-03T08:38:22.641Z,27.97
2022-08-03T08:40:54.970Z,27.96
2022-08-03T08:43:27.167Z,27.89
2022-08-03T08:46:00.157Z,28.11
2022-08-03T08:48:32.040Z,28.17
2022-08-03T08:51:04.104Z,28.07
2022-08-03T08:53:40.057Z,28.12
2022-08-03T08:56:14.387Z,28.34
2022-08-03T08:58:58.965Z,28.35
2022-08-03T09:01:30.018Z,28.29
2022-08-03T09:04:01.483Z,28.23
2022-08-03T09:06:33.800Z,28.30
2022-08-03T09:09:04.542Z,28.48
2022-08-03T09:12:00.500Z,28.35
2022-08-03T09:14:10.454Z,28.32
2022-08-03T09:16:58.552Z,28.31
2022-08-03T09:19:30.777Z,28.38
2022-08-03T09:22:13.264Z,28.55
2022-08-03T09:25:23.432Z,28.73
2022-08-03T09:27:47.502Z,28.77
2022-08-03T09:30:33.276Z,28.56
2022-08-03T09:32:51.987Z,28.54
2022-08-03T09:35:51.578Z,28.42
2022-08-03T09:38:17.676Z,28.54
2022-08-03T09:40:48.235Z,28.36
2022-08-03T09:43:21.062Z,28.38
2022-08-03T09:45:53.460Z,28.68
2022-08-03T09:48:29.897Z,28.89
2022-08-03T09:51:13.593Z,28.87
2022-08-03T09:53:57.258Z,29.15
2022-08-03T09:56:36.082Z,29.27
2022-08-03T09:58:52.027Z,29.30
2022-08-03T10:01:25.486Z,29.36
2022-08-03T10:04:03.974Z,29.19
2022-08-03T10:06:34.443Z,29.24
2022-08-03T10:09:13.692Z,29.28
2022-08-03T10:11:46.943Z,29.29
2022-08-03T10:14:20.261Z,29.52
2022-08-03T10:17:00.838Z,29.62
2022-08-03T10:19:31.534Z,29.63
2022-08-03T10:22:10.840Z,29.60
2022-08-03T10:24:47.131Z,29.92
2022-08-03T10:27:20.232Z,29.92
2022-08-03T10:29:57.037Z,29.79
2022-08-03T10:32:30.546Z,29.83
2022-08-03T10:35:21.024Z,29.84
2022-08-03T10:37:56.412Z,30.00
2022-08-03T10:40:39.649Z,30.02
2022-08-03T10:42:55.549Z,30.06
2022-08-03T10:45:28.953Z,29.94
2022-08-03T10:48:01.266Z,30.08
2022-08-03T10:50:31.991Z,29.89
2022-08-03T10:53:07.817Z,30.05
2022-08-03T10:55:58.975Z,30.17
2022-08-03T10:58:57.130Z,30.22
2022-08-03T11:01:15.588Z,30.45
2022-08-03T11:03:57.792Z,30.58
2022-08-03T11:06:28.700Z,30.32
2022-08-03T11:09:16.795Z,30.58
2022-08-03T11:11:51.529Z,30.46
2022-08-03T11:14:24.047Z,30.53
2022-08-03T11:17:15.155Z,30.45
2022-08-03T11:19:57.707Z,30.48
2022-08-03T11:22:23.182Z,30.49
2022-08-03T11:25:07.436Z,30.44
2022-08-03T11:27:40.293Z,30.42
2022-08-03T11:30:22.873Z,30.54
2022-08-03T11:33:01.622Z,30.68
2022-08-03T11:35:35.703Z,30.48
2022-08-03T11:38:12.421Z,30.11
2022-08-03T11:40:51.226Z,30.03
2022-08-03T11:43:35.246Z,30.09
2022-08-03T11:46:08.342Z,30.35
2022-08-03T11:48:43.758Z,30.56
2022-08-03T11:51:32.471Z,30.76
2022-08-03T11:54:05.562Z,30.55
2022-08-03T11:56:51.011Z,30.50
2022-08-03T11:59:24.756Z,30.36
2022-08-03T12:01:58.352Z,30.78
2022-08-03T12:04:31.264Z,30.84
2022-08-03T12:07:03.757Z,31.02
2022-08-03T12:09:35.942Z,31.10
2022-08-03T12:12:06.614Z,31.35
2022-08-03T12:14:49.684Z,31.32
2022-08-03T12:17:09.695Z,31.22
2022-08-03T12:19:44.106Z,31.20
2022-08-03T12:22:16.889Z,30.87
2022-08-03T12:24:48.887Z,31.15
2022-08-03T12:27:29.609Z,31.32
2022-08-03T12:30:05.589Z,31.32
2022-08-03T12:32:36.174Z,31.43
2022-08-03T12:35:07.723Z,31.61
2022-08-03T12:37:39.201Z,31.43
2022-08-03T12:40:20.544Z,31.60
2022-08-03T12:42:47.544Z,31.70
2022-08-03T12:45:31.103Z,31.20
2022-08-03T12:48:03.050Z,31.26
2022-08-03T12:50:38.819Z,31.16
2022-08-03T12:53:10.726Z,31.29
2022-08-03T12:56:04.266Z,31.47
2022-08-03T12:58:18.993Z,31.26
2022-08-03T13:00:57.655Z,31.75
2022-08-03T13:03:39.175Z,31.50
2022-08-03T13:06:00.444Z,31.47
2022-08-03T13:08:32.099Z,31.60
2022-08-03T13:11:55.847Z,31.09
2022-08-03T13:13:56.963Z,31.32
2022-08-03T13:16:27.409Z,31.41
2022-08-03T13:18:57.826Z,31.58
2022-08-03T13:21:28.935Z,31.52
2022-08-03T13:23:59.490Z,31.42
2022-08-03T13:26:29.939Z,31.60
2022-08-03T13:29:00.389Z,31.22
2022-08-03T13:31:30.808Z,31.44
2022-08-03T13:34:01.206Z,31.41
2022-08-03T13:36:42.767Z,31.19
2022-08-03T13:39:03.842Z,31.38
2022-08-03T13:41:36.059Z,31.46
2022-08-03T13:44:26.552Z,31.78
2022-08-03T13:46:39.860Z,32.00
2022-08-03T13:49:10.383Z,32.20
2022-08-03T13:51:41.235Z,32.28
2022-08-03T13:54:11.644Z,31.89
2022-08-03T13:56:42.150Z,31.52
2022-08-03T13:59:12.661Z,31.45
2022-08-03T14:01:55.050Z,31.66
2022-08-03T14:04:21.828Z,31.60
2022-08-03T14:06:48.141Z,31.83
2022-08-03T14:09:18.781Z,31.73
2022-08-03T14:12:07.802Z,31.92
2022-08-03T14:14:21.665Z,32.04
2022-08-03T14:16:52.160Z,31.98
2022-08-03T14:19:24.888Z,31.88
2022-08-03T14:22:06.459Z,31.81
2022-08-03T14:24:30.558Z,31.87
2022-08-03T14:27:08.705Z,31.84
2022-08-03T14:29:33.219Z,31.96
2022-08-03T14:32:10.108Z,31.89
2022-08-03T14:34:35.848Z,31.87
2022-08-03T14:37:06.312Z,31.69
2022-08-03T14:42:10.272Z,31.88
2022-08-03T14:44:40.794Z,32.09
2022-08-03T14:47:11.325Z,31.82
2022-08-03T14:50:29.534Z,31.67
2022-08-03T14:52:14.633Z,32.02
2022-08-03T14:54:46.645Z,32.20
2022-08-03T14:57:17.193Z,32.28
2022-08-03T14:59:56.017Z,32.42
2022-08-03T15:02:23.904Z,32.57
2022-08-03T15:04:53.405Z,32.46
2022-08-03T15:07:23.896Z,32.64
2022-08-03T15:09:54.395Z,32.50
2022-08-03T15:12:25.086Z,32.74
2022-08-03T15:14:56.435Z,32.31
2022-08-03T15:17:26.823Z,32.34
2022-08-03T15:20:28.872Z,32.50
2022-08-03T15:22:34.585Z,32.48
2022-08-03T15:26:03.556Z,32.59
2022-08-03T15:28:04.246Z,32.66
2022-08-03T15:30:12.517Z,32.69
2022-08-03T15:32:42.936Z,32.62
2022-08-03T15:35:13.589Z,32.13
2022-08-03T15:37:44.037Z,31.94
2022-08-03T15:40:14.600Z,32.26
2022-08-03T15:42:44.996Z,32.20
2022-08-03T15:45:17.766Z,32.40
2022-08-03T15:47:47.586Z,31.88
2022-08-03T15:50:18.117Z,31.94
2022-08-03T15:52:48.662Z,31.97
2022-08-03T15:55:19.157Z,32.13
2022-08-03T15:59:10.431Z,32.08
2022-08-03T16:00:33.649Z,32.04
2022-08-03T16:02:56.755Z,32.18
2022-08-03T16:05:27.596Z,32.04
2022-08-03T16:08:02.605Z,32.23
2022-08-03T16:10:30.675Z,31.98
2022-08-03T16:13:01.157Z,32.10
2022-08-03T16:15:31.688Z,31.94
2022-08-03T16:18:02.204Z,31.96
2022-08-03T16:20:34.376Z,32.11
2022-08-03T16:23:11.295Z,32.00
2022-08-03T16:25:38.412Z,32.28
2022-08-03T16:28:13.906Z,32.18
2022-08-03T16:30:44.351Z,32.03
2022-08-03T16:33:17.856Z,32.20
2022-08-03T16:35:49.677Z,32.13
2022-08-03T16:38:20.116Z,32.01
2022-08-03T16:40:53.647Z,32.38
2022-08-03T16:43:24.691Z,32.13
2022-08-03T16:45:55.306Z,32.20
2022-08-03T16:48:25.734Z,32.35
2022-08-03T16:50:56.201Z,32.27
2022-08-03T16:53:51.624Z,32.17
2022-08-03T16:55:58.989Z,32.00
2022-08-03T16:58:34.549Z,31.99
2022-08-03T17:01:01.642Z,32.02
2022-08-03T17:03:42.794Z,32.01
2022-08-03T17:06:09.381Z,31.89
2022-08-03T17:08:40.451Z,32.18
2022-08-03T17:11:11.205Z,32.53
2022-08-03T17:13:43.168Z,32.93
2022-08-03T17:16:18.800Z,33.23
2022-08-03T17:18:53.289Z,33.30
2022-08-03T17:21:26.500Z,33.21
2022-08-03T17:24:18.728Z,33.14
2022-08-03T17:26:52.728Z,32.11
2022-08-03T17:29:25.283Z,32.25
2022-08-03T17:31:57.387Z,32.25
2022-08-03T17:34:27.871Z,32.22
2022-08-03T17:37:04.516Z,32.30
2022-08-03T17:39:57.071Z,32.27
2022-08-03T17:42:05.405Z,32.19
2022-08-03T17:44:46.336Z,32.06
2022-08-03T17:47:10.346Z,31.82
2022-08-03T17:49:41.138Z,31.62
2022-08-03T17:52:35.708Z,31.44
2022-08-03T17:55:55.631Z,31.54
2022-08-03T17:58:01.313Z,31.42
2022-08-03T18:00:36.946Z,31.80
2022-08-03T18:03:24.200Z,31.05
2022-08-03T18:06:10.642Z,30.93
2022-08-03T18:08:38.937Z,30.82
2022-08-03T18:11:16.572Z,30.56
2022-08-03T18:13:53.368Z,30.38
2022-08-03T18:16:39.551Z,30.28
2022-08-03T18:19:13.706Z,30.19
2022-08-03T18:22:03.132Z,29.90
2022-08-03T18:24:20.826Z,29.80
2022-08-03T18:26:53.666Z,29.56
2022-08-03T18:29:24.147Z,29.43
2022-08-03T18:32:03.134Z,29.28
2022-08-03T18:34:34.879Z,29.02
2022-08-03T18:37:07.658Z,28.99
2022-08-03T18:39:50.363Z,28.76
2022-08-03T18:42:19.546Z,28.75
2022-08-03T18:44:54.268Z,28.57
2022-08-03T18:47:25.924Z,28.52
2022-08-03T18:50:02.164Z,28.46
2022-08-03T18:52:53.149Z,28.48
2022-08-03T18:55:33.681Z,28.38
2022-08-03T18:57:59.752Z,28.30
2022-08-03T19:00:53.892Z,28.20
2022-08-03T19:03:10.495Z,28.10
2022-08-03T19:06:02.217Z,28.01
2022-08-03T19:08:27.358Z,27.91
2022-08-03T19:11:01.056Z,27.81
2022-08-03T19:13:50.303Z,27.84
2022-08-03T19:16:38.766Z,27.80
2022-08-03T19:19:14.522Z,27.78
2022-08-03T19:21:47.781Z,27.72
2022-08-03T19:24:23.352Z,27.60
2022-08-03T19:26:56.027Z,27.54
2022-08-03T19:29:57.808Z,27.44
2022-08-03T19:32:01.944Z,27.39
2022-08-03T19:34:33.258Z,27.37
2022-08-03T19:37:05.783Z,27.42
2022-08-03T19:39:37.056Z,27.32
2022-08-03T19:42:20.049Z,27.24
2022-08-03T19:44:50.257Z,27.22
2022-08-03T19:47:27.073Z,27.08
2022-08-03T19:50:10.215Z,26.94
2022-08-03T19:52:38.917Z,26.95
2022-08-03T19:55:12.493Z,26.82
2022-08-03T19:57:45.984Z,26.80
2022-08-03T20:00:19.433Z,26.75
2022-08-03T20:02:51.798Z,26.78
2022-08-03T20:05:22.513Z,26.77
2022-08-03T20:07:54.380Z,26.75
2022-08-03T20:10:24.758Z,26.70
2022-08-03T20:12:55.682Z,26.63
2022-08-03T20:15:31.037Z,26.58
2022-08-03T20:17:59.315Z,26.54
2022-08-03T20:20:35.860Z,26.47
2022-08-03T20:23:16.489Z,26.41
2022-08-03T20:25:58.620Z,26.40
2022-08-03T20:28:32.609Z,26.23
2022-08-03T20:31:03.128Z,26.19
2022-08-03T20:33:45.808Z,26.12
2022-08-03T20:36:06.310Z,26.08
2022-08-03T20:38:43.516Z,26.03
2022-08-03T20:41:08.884Z,25.96
2022-08-03T20:43:40.889Z,25.96
2022-08-03T20:46:32.853Z,25.90
2022-08-03T20:48:48.529Z,25.90
2022-08-03T20:51:20.090Z,25.86
2022-08-03T20:53:57.354Z,25.76
2022-08-03T20:56:25.922Z,25.74
2022-08-03T20:58:56.959Z,25.73
2022-08-03T21:01:36.143Z,25.68
2022-08-03T21:04:07.071Z,25.59
2022-08-03T21:06:45.496Z,25.53
2022-08-03T21:09:20.972Z,25.55
2022-08-03T21:11:55.096Z,25.54
2022-08-03T21:14:30.259Z,25.46
2022-08-03T21:17:09.396Z,25.45
2022-08-03T21:19:38.797Z,25.36
2022-08-03T21:22:13.465Z,25.29
2022-08-03T21:24:46.435Z,25.30
2022-08-03T21:27:17.112Z,25.30
2022-08-03T21:29:53.504Z,25.40
2022-08-03T21:32:32.504Z,25.38
2022-08-03T21:34:57.106Z,25.34
2022-08-03T21:37:29.617Z,25.40
2022-08-03T21:40:00.667Z,25.26
2022-08-03T21:42:31.148Z,25.18
2022-08-03T21:45:03.111Z,25.15
2022-08-03T21:47:38.901Z,25.12
2022-08-03T21:50:12.193Z,25.05
2022-08-03T21:52:45.776Z,25.03
2022-08-03T21:55:18.344Z,25.02
2022-08-03T21:57:52.879Z,24.98
2022-08-03T22:00:24.178Z,25.03
2022-08-03T22:02:58.100Z,25.06
2022-08-03T22:05:43.561Z,25.07
2022-08-03T22:08:01.797Z,25.10
2022-08-03T22:10:32.328Z,25.13
2022-08-03T22:13:02.795Z,24.95
2022-08-03T22:15:34.098Z,24.87
2022-08-03T22:18:05.856Z,24.74
2022-08-03T22:20:37.072Z,24.80
2022-08-03T22:23:09.935Z,24.71
2022-08-03T22:25:41.190Z,24.62
2022-08-03T22:28:15.020Z,24.76
2022-08-03T22:30:47.084Z,24.71
2022-08-03T22:33:17.738Z,24.68
2022-08-03T22:35:51.130Z,24.85
2022-08-03T22:38:21.707Z,24.66
2022-08-03T22:40:53.136Z,24.72
2022-08-03T22:43:26.702Z,24.60
2022-08-03T22:46:09.496Z,24.56
2022-08-03T22:48:35.331Z,24.62
2022-08-03T22:51:07.577Z,24.50
2022-08-03T22:53:39.379Z,24.46
2022-08-03T22:56:10.272Z,24.33
2022-08-03T22:58:42.293Z,24.27
2022-08-03T23:01:15.945Z,24.23
2022-08-03T23:04:01.281Z,24.25
2022-08-03T23:06:24.474Z,24.16
2022-08-03T23:08:55.291Z,24.10
2022-08-03T23:11:26.507Z,24.16
2022-08-03T23:13:59.574Z,24.09
2022-08-03T23:16:30.659Z,24.12
2022-08-03T23:19:16.364Z,24.10
2022-08-03T23:22:00.407Z,24.16
2022-08-03T23:24:17.603Z,24.22
2022-08-03T23:26:40.915Z,24.16
2022-08-03T23:29:15.398Z,24.16
2022-08-03T23:31:47.441Z,24.14
2022-08-03T23:34:36.679Z,24.25
2022-08-03T23:37:07.369Z,24.15
2022-08-03T23:39:38.914Z,24.22
2022-08-03T23:42:10.775Z,24.33
2022-08-03T23:44:43.816Z,24.32
2022-08-03T23:47:15.813Z,24.16
2022-08-03T23:49:46.260Z,24.16
2022-08-03T23:52:24.231Z,24.14
2022-08-03T23:55:15.576Z,24.06
2022-08-03T23:58:17.905Z,24.05
